Time;durP1;ratioP1;P1;durP2;ratioP2;P2;SDS_P1;SDS_P2;PMS_P1;PMS_P2;Temp;Humidity;BMP_temperature;BMP_pressure;BME280_temperature;BME280_humidity;BME280_pressure;Samples;Min_cycle;Max_cycle;Signal;HPM_P1;HPM_P2
2022/12/25 00:02:06;;;;;;;;;;;;;;;28.20;43.22;97182.50;610495;232;66937;-66
2022/12/25 00:04:34;;;;;;;;;;;;;;;28.20;43.10;97184.41;610483;232;65044;-66
2022/12/25 00:07:01;;;;;;;;;;;;;;;28.19;41.98;97183.63;610239;232;66905;-66
2022/12/25 00:09:29;;;;;;;;;;;;;;;28.19;44.22;97180.92;610545;232;66859;-66
2022/12/25 00:11:56;;;;;;;;;;;;;;;28.18;43.53;97189.33;610278;232;63041;-66
2022/12/25 00:14:24;;;;;;;;;;;;;;;28.17;42.19;97193.95;610417;232;66759;-67
2022/12/25 00:16:51;;;;;;;;;;;;;;;28.17;44.27;97190.45;610480;232;66847;-68
2022/12/25 00:19:18;;;;;;;;;;;;;;;28.15;43.01;97192.66;610474;232;62972;-67
2022/12/25 00:21:46;;;;;;;;;;;;;;;28.13;42.71;97193.00;610480;232;64655;-68
2022/12/25 00:24:13;;;;;;;;;;;;;;;28.13;42.26;97197.58;610570;232;66535;-68
2022/12/25 00:26:41;;;;;;;;;;;;;;;28.10;42.86;97196.30;610492;232;63190;-67
2022/12/25 00:29:10;;;;;;;;;;;;;;;28.09;42.87;97195.51;610059;232;66933;-67
2022/12/25 00:31:38;;;;;;;;;;;;;;;28.09;41.94;97203.61;608828;233;67425;-67
2022/12/25 00:34:05;;;;;;;;;;;;;;;28.07;43.55;97197.75;608856;233;65059;-68
2022/12/25 00:36:33;;;;;;;;;;;;;;;28.07;43.08;97202.33;608610;233;66955;-67
2022/12/25 00:39:00;;;;;;;;;;;;;;;28.05;43.33;97204.57;608840;233;66957;-68
2022/12/25 00:44:13;;;;;;;;;;;;;;;28.03;42.77;97215.67;608850;233;64637;-68
2022/12/25 00:46:41;;;;;;;;;;;;;;;28.03;44.04;97217.59;608864;233;66853;-68
2022/12/25 00:49:09;;;;;;;;;;;;;;;28.01;42.66;97211.69;608871;233;65089;-68
2022/12/25 00:51:36;;;;;;;;;;;;;;;27.99;43.91;97214.72;608874;233;66745;-68
2022/12/25 00:54:04;;;;;;;;;;;;;;;27.98;43.50;97226.61;608846;233;66847;-68
2022/12/25 00:56:31;;;;;;;;;;;;;;;27.97;43.71;97225.03;608585;233;65188;-68
2022/12/25 00:58:59;;;;;;;;;;;;;;;27.96;42.81;97228.03;608824;233;67267;-68
2022/12/25 01:01:26;;;;;;;;;;;;;;;27.95;44.71;97224.55;608840;233;67529;-68
2022/12/25 01:03:54;;;;;;;;;;;;;;;27.94;43.98;97228.36;608849;233;65081;-68
2022/12/25 01:06:22;;;;;;;;;;;;;;;27.92;42.18;97225.17;608854;233;66930;-68
2022/12/25 01:11:35;;;;;;;;;;;;;;;27.93;42.02;97239.47;608828;233;65363;-66
2022/12/25 01:14:02;;;;;;;;;;;;;;;27.91;43.21;97228.98;608855;233;66953;-66
2022/12/25 01:16:30;;;;;;;;;;;;;;;27.89;43.60;97228.49;608701;233;66836;-66
2022/12/25 01:18:57;;;;;;;;;;;;;;;27.88;42.64;97232.28;608779;233;65820;-66
2022/12/25 01:21:25;;;;;;;;;;;;;;;27.87;42.84;97231.49;608803;233;64471;-66
2022/12/25 01:23:52;;;;;;;;;;;;;;;27.85;42.13;97232.91;608854;233;64741;-66
2022/12/25 01:26:21;;;;;;;;;;;;;;;27.85;43.08;97230.20;608838;233;63153;-66
2022/12/25 01:28:49;;;;;;;;;;;;;;;27.85;41.97;97239.10;608827;232;66984;-66
2022/12/25 01:31:18;;;;;;;;;;;;;;;27.82;43.81;97228.13;608901;233;68460;-66
2022/12/25 01:33:46;;;;;;;;;;;;;;;27.82;42.23;97236.23;608889;233;65013;-66
2022/12/25 01:36:21;;;;;;;;;;;;;;;27.81;43.25;97229.25;608874;233;64816;-66
2022/12/25 01:38:49;;;;;;;;;;;;;;;27.79;42.92;97231.42;608919;233;64444;-65
2022/12/25 01:41:17;;;;;;;;;;;;;;;27.79;44.54;97228.73;608598;233;63081;-66
2022/12/25 01:43:58;;;;;;;;;;;;;;;27.76;42.70;97226.65;608902;233;67101;-68
2022/12/25 01:46:26;;;;;;;;;;;;;;;27.76;43.09;97229.34;608926;233;67197;-68
2022/12/25 01:48:54;;;;;;;;;;;;;;;27.74;42.03;97231.55;608865;233;65120;-66
2022/12/25 01:51:29;;;;;;;;;;;;;;;27.74;44.91;97229.65;608882;233;66955;-66
2022/12/25 01:53:58;;;;;;;;;;;;;;;27.72;43.48;97236.46;608558;232;66826;-65
2022/12/25 01:56:26;;;;;;;;;;;;;;;27.70;41.83;97236.78;608884;233;63001;-66
2022/12/25 01:58:55;;;;;;;;;;;;;;;27.70;42.76;97236.78;608918;233;64486;-66
2022/12/25 02:01:22;;;;;;;;;;;;;;;27.68;44.12;97237.09;608646;233;66506;-65
2022/12/25 02:03:51;;;;;;;;;;;;;;;27.67;46.21;97246.30;608897;233;65085;-65
2022/12/25 02:06:18;;;;;;;;;;;;;;;27.66;43.73;97243.89;608876;233;66444;-66
2022/12/25 02:08:46;;;;;;;;;;;;;;;27.65;43.97;97239.61;608711;233;66692;-66
2022/12/25 02:11:55;;;;;;;;;;;;;;;27.64;43.30;97252.32;608887;233;65049;-65
2022/12/25 02:13:44;;;;;;;;;;;;;;;27.62;43.24;97246.42;608271;233;48116;-67
2022/12/25 02:16:13;;;;;;;;;;;;;;;27.63;44.92;97256.11;608919;233;66552;-68
2022/12/25 02:18:43;;;;;;;;;;;;;;;27.60;44.70;97255.94;608889;233;65745;-68
2022/12/25 02:21:18;;;;;;;;;;;;;;;27.59;44.15;97255.15;608622;233;66579;-68
2022/12/25 02:23:59;;;;;;;;;;;;;;;27.58;42.77;97256.27;608900;233;66626;-68
2022/12/25 02:26:34;;;;;;;;;;;;;;;27.57;43.42;97251.95;608898;233;65006;-68
2022/12/25 02:29:06;;;;;;;;;;;;;;;27.53;43.64;97259.09;608611;232;64684;-68
2022/12/25 02:31:41;;;;;;;;;;;;;;;27.54;43.61;97257.18;608595;232;66823;-68
2022/12/25 02:34:23;;;;;;;;;;;;;;;27.53;42.16;97261.78;608859;233;63039;-68
2022/12/25 02:36:55;;;;;;;;;;;;;;;27.52;42.80;97259.38;608460;231;66977;-68
2022/12/25 02:42:11;;;;;;;;;;;;;;;27.49;44.89;97255.39;608827;233;65338;-68
2022/12/25 03:06:57;;;;;;;;;;;;;;;27.36;44.72;97269.74;608825;233;65170;-68
2022/12/25 03:12:17;;;;;;;;;;;;;;;27.33;44.77;97267.66;608918;233;49476;-68
2022/12/25 03:17:31;;;;;;;;;;;;;;;27.29;44.85;97277.48;608882;233;67158;-65
2022/12/25 03:28:17;;;;;;;;;;;;;;;27.25;44.33;97277.28;608871;233;66878;-65
2022/12/25 03:31:10;;;;;;;;;;;;;;;27.24;42.65;97270.30;610284;232;65407;-65
2022/12/25 03:36:48;;;;;;;;;;;;;;;27.22;45.92;97283.29;610524;232;64905;-66
2022/12/25 04:37:17;;;;;;;;;;;;;;;26.92;45.16;97330.59;603206;235;63026;-65
2022/12/25 04:39:45;;;;;;;;;;;;;;;26.91;45.01;97340.59;603190;235;64718;-65
2022/12/25 04:42:12;;;;;;;;;;;;;;;26.90;44.99;97332.78;603172;235;66906;-68
2022/12/25 04:44:39;;;;;;;;;;;;;;;26.89;46.87;97342.78;603151;235;65303;-68
2022/12/25 04:47:07;;;;;;;;;;;;;;;26.88;43.69;97338.50;602926;235;66725;-68
2022/12/25 04:49:34;;;;;;;;;;;;;;;26.88;44.97;97337.70;603201;235;66786;-68
2022/12/25 04:52:02;;;;;;;;;;;;;;;26.87;45.37;97341.48;603081;235;65034;-68
2022/12/25 04:54:29;;;;;;;;;;;;;;;26.86;46.45;97348.78;603166;235;67209;-68
2022/12/25 04:56:57;;;;;;;;;;;;;;;26.85;46.15;97357.98;603091;235;66802;-68
2022/12/25 04:59:24;;;;;;;;;;;;;;;26.84;44.74;97358.27;602865;235;65040;-68
2022/12/25 05:01:54;;;;;;;;;;;;;;;26.83;46.43;97356.68;603183;235;66789;-68
2022/12/25 05:04:21;;;;;;;;;;;;;;;26.82;45.37;97355.06;603135;235;66904;-68
2022/12/25 05:06:48;;;;;;;;;;;;;;;26.82;46.20;97365.85;603200;235;62908;-68
2022/12/25 05:09:16;;;;;;;;;;;;;;;26.80;44.88;97363.47;603173;235;64664;-68
2022/12/25 05:11:43;;;;;;;;;;;;;;;26.80;45.34;97376.95;602956;235;66581;-68
2022/12/25 05:14:11;;;;;;;;;;;;;;;26.78;46.69;97376.45;603212;235;64916;-68
2022/12/25 05:16:38;;;;;;;;;;;;;;;26.76;44.40;97371.37;603055;235;66946;-68
2022/12/25 05:19:06;;;;;;;;;;;;;;;26.76;46.28;97384.85;603202;235;66807;-68
2022/12/25 05:21:33;;;;;;;;;;;;;;;26.76;47.77;97386.72;603190;235;62773;-68
2022/12/25 05:24:01;;;;;;;;;;;;;;;26.73;44.66;97384.63;603184;235;64675;-65
2022/12/25 05:26:28;;;;;;;;;;;;;;;26.74;45.21;97394.34;603177;235;64784;-65
2022/12/25 05:28:56;;;;;;;;;;;;;;;26.71;45.57;97395.73;604118;232;65148;-68
2022/12/25 05:31:23;;;;;;;;;;;;;;;26.70;44.97;97394.11;608642;233;66936;-68
2022/12/25 05:33:52;;;;;;;;;;;;;;;26.69;45.30;97389.83;608906;233;66529;-68
2022/12/25 05:36:19;;;;;;;;;;;;;;;26.68;45.64;97403.59;608667;233;65019;-68
2022/12/25 05:38:47;;;;;;;;;;;;;;;26.67;46.69;97402.02;608423;233;66962;-68
2022/12/25 05:41:14;;;;;;;;;;;;;;;26.66;46.09;97403.13;608890;233;67081;-68
2022/12/25 05:43:42;;;;;;;;;;;;;;;26.65;45.65;97410.38;608790;233;62876;-68
2022/12/25 05:46:10;;;;;;;;;;;;;;;26.64;45.99;97411.49;608885;233;64854;-68
2022/12/25 05:48:37;;;;;;;;;;;;;;;26.63;44.96;97415.30;608891;233;64723;-68
2022/12/25 05:51:09;;;;;;;;;;;;;;;26.62;47.49;97413.68;608656;233;63012;-68
2022/12/25 05:53:37;;;;;;;;;;;;;;;26.61;46.27;97420.18;608841;233;66901;-69
2022/12/25 05:56:06;;;;;;;;;;;;;;;26.60;47.03;97423.98;608606;233;66840;-69
2022/12/25 05:58:34;;;;;;;;;;;;;;;26.59;47.29;97433.15;608903;233;65060;-68
2022/12/25 06:01:02;;;;;;;;;;;;;;;26.58;46.14;97428.07;608864;233;66892;-68
2022/12/25 06:03:30;;;;;;;;;;;;;;;26.55;45.59;97432.95;608933;233;66815;-68
2022/12/25 06:05:57;;;;;;;;;;;;;;;26.55;47.54;97424.08;608848;233;65168;-68
2022/12/25 06:08:24;;;;;;;;;;;;;;;26.54;45.93;97433.23;608897;233;67247;-68
2022/12/25 06:10:52;;;;;;;;;;;;;;;26.54;45.72;97441.32;608880;233;66898;-68
2022/12/25 06:13:19;;;;;;;;;;;;;;;26.51;44.80;97434.63;608642;233;65031;-68
2022/12/25 06:15:47;;;;;;;;;;;;;;;26.52;46.00;97438.15;608853;233;66975;-68
2022/12/25 06:18:14;;;;;;;;;;;;;;;26.50;46.49;97437.61;608854;233;66839;-68
2022/12/25 06:20:42;;;;;;;;;;;;;;;26.49;49.18;97444.08;608769;233;65193;-65
2022/12/25 06:23:10;;;;;;;;;;;;;;;26.48;47.08;97447.87;608929;233;64374;-65
2022/12/25 06:25:40;;;;;;;;;;;;;;;26.48;48.25;97450.57;608908;233;66629;-65
2022/12/25 06:28:07;;;;;;;;;;;;;;;26.46;47.68;97450.06;608910;233;64962;-66
2022/12/25 06:30:35;;;;;;;;;;;;;;;26.45;47.05;97453.86;608644;232;64393;-66
2022/12/25 06:33:02;;;;;;;;;;;;;;;26.43;45.98;97456.05;608842;233;64335;-66
2022/12/25 06:35:30;;;;;;;;;;;;;;;26.42;46.39;97449.86;608658;233;62835;-66
2022/12/25 06:37:57;;;;;;;;;;;;;;;26.42;47.55;97451.77;608888;233;64544;-66
2022/12/25 06:40:25;;;;;;;;;;;;;;;26.40;44.78;97456.64;608760;233;66494;-69
2022/12/25 06:42:52;;;;;;;;;;;;;;;26.39;47.26;97447.77;608634;233;65864;-69
2022/12/25 06:45:20;;;;;;;;;;;;;;;26.38;45.73;97454.23;608870;233;64402;-69
2022/12/25 06:47:49;;;;;;;;;;;;;;;26.37;48.17;97460.72;608704;232;46050;-69
2022/12/25 06:50:16;;;;;;;;;;;;;;;26.37;46.31;97468.02;608842;233;65049;-69
2022/12/25 06:52:45;;;;;;;;;;;;;;;26.34;46.58;97464.80;608888;233;64493;-69
2022/12/25 06:55:14;;;;;;;;;;;;;;;26.33;46.20;97460.52;603790;233;67067;-69
2022/12/25 06:57:41;;;;;;;;;;;;;;;26.33;47.47;97473.20;608917;233;65181;-69
2022/12/25 07:00:09;;;;;;;;;;;;;;;26.32;46.90;97475.07;608838;233;66984;-66
2022/12/25 07:02:37;;;;;;;;;;;;;;;26.31;47.18;97475.38;608879;233;66889;-66
2022/12/25 07:05:05;;;;;;;;;;;;;;;26.30;45.64;97474.59;608862;233;65016;-69
2022/12/25 07:07:32;;;;;;;;;;;;;;;26.30;47.15;97479.15;608883;233;66934;-68
2022/12/25 07:09:59;;;;;;;;;;;;;;;26.30;46.57;97485.37;608921;233;66866;-68
2022/12/25 07:12:27;;;;;;;;;;;;;;;26.30;48.21;97495.31;608874;233;63050;-69
2022/12/25 07:14:55;;;;;;;;;;;;;;;26.28;46.50;97498.33;608660;233;64130;-69
2022/12/25 07:17:23;;;;;;;;;;;;;;;26.29;46.20;97493.73;608687;233;64721;-69
2022/12/25 07:19:51;;;;;;;;;;;;;;;26.28;45.90;97498.33;608735;233;64921;-68
2022/12/25 07:22:18;;;;;;;;;;;;;;;26.28;46.43;97498.33;608905;233;67176;-68
2022/12/25 07:24:46;;;;;;;;;;;;;;;26.27;46.35;97507.52;608869;233;66655;-68
2022/12/25 07:27:13;;;;;;;;;;;;;;;26.27;46.66;97510.20;608825;233;64896;-68
2022/12/25 07:29:41;;;;;;;;;;;;;;;26.28;46.05;97509.10;608746;232;64354;-68
2022/12/25 07:32:08;;;;;;;;;;;;;;;26.28;47.02;97501.02;608868;233;64742;-71
2022/12/25 07:34:36;;;;;;;;;;;;;;;26.27;47.50;97512.90;608749;233;65029;-70
2022/12/25 07:37:03;;;;;;;;;;;;;;;26.26;47.37;97513.97;597560;233;70016;-69
2022/12/25 07:39:32;;;;;;;;;;;;;;;26.25;47.66;97519.67;597194;233;67961;-69
2022/12/25 07:42:00;;;;;;;;;;;;;;;26.23;46.46;97533.42;608369;233;65236;-69
2022/12/25 07:44:28;;;;;;;;;;;;;;;26.22;46.06;97534.53;608413;233;66823;-69
2022/12/25 07:46:55;;;;;;;;;;;;;;;26.22;46.69;97531.83;608710;233;66646;-69
2022/12/25 07:49:23;;;;;;;;;;;;;;;26.21;45.28;97540.98;608529;233;62806;-65
2022/12/25 07:51:50;;;;;;;;;;;;;;;26.23;47.00;97548.80;608688;233;68021;-65
2022/12/25 07:54:18;;;;;;;;;;;;;;;26.22;46.92;97547.17;608816;233;64737;-65
2022/12/25 07:56:46;;;;;;;;;;;;;;;26.22;44.28;97553.38;608851;233;65077;-65
2022/12/25 07:59:13;;;;;;;;;;;;;;;26.23;45.03;97557.67;608855;233;64513;-69
2022/12/25 08:01:41;;;;;;;;;;;;;;;26.24;45.83;97561.16;608794;233;64398;-69
2022/12/25 08:04:10;;;;;;;;;;;;;;;26.22;44.63;97568.72;608640;233;64833;-69
2022/12/25 08:06:38;;;;;;;;;;;;;;;26.23;47.01;97573.04;608842;233;67003;-69
2022/12/25 08:09:07;;;;;;;;;;;;;;;26.23;47.51;97576.53;608726;233;67049;-69
2022/12/25 08:11:35;;;;;;;;;;;;;;;26.25;45.45;97589.72;607906;233;65026;-69
2022/12/25 08:14:04;;;;;;;;;;;;;;;26.26;46.74;97592.11;608807;233;66924;-69
2022/12/25 08:16:31;;;;;;;;;;;;;;;26.26;45.73;97599.39;608756;233;67454;-70
2022/12/25 08:18:59;;;;;;;;;;;;;;;26.26;46.96;97602.88;608762;233;63832;-65
2022/12/25 08:21:26;;;;;;;;;;;;;;;26.26;46.65;97602.88;608696;233;66857;-65
2022/12/25 08:23:54;;;;;;;;;;;;;;;26.27;48.19;97607.20;608793;233;66895;-65
2022/12/25 08:26:21;;;;;;;;;;;;;;;26.27;49.34;97604.50;608932;233;65136;-65
2022/12/25 08:28:49;;;;;;;;;;;;;;;26.27;46.91;97598.29;608995;232;66733;-70
2022/12/25 08:31:18;;;;;;;;;;;;;;;26.28;45.78;97605.30;610492;232;66790;-70
2022/12/25 08:33:47;;;;;;;;;;;;;;;26.28;45.98;97600.70;610464;232;65138;-70
2022/12/25 08:36:15;;;;;;;;;;;;;;;26.29;47.05;97601.50;610478;232;67239;-70
2022/12/25 08:38:42;;;;;;;;;;;;;;;26.29;45.43;97596.91;610557;232;66820;-70
2022/12/25 08:41:11;;;;;;;;;;;;;;;26.29;44.12;97594.21;610486;232;64857;-70
2022/12/25 08:43:39;;;;;;;;;;;;;;;26.30;46.10;97598.53;610386;232;67075;-71
2022/12/25 08:46:07;;;;;;;;;;;;;;;26.31;45.13;97589.34;610487;232;64752;-70
2022/12/25 08:48:34;;;;;;;;;;;;;;;26.31;45.18;97588.55;610467;232;62971;-70
2022/12/25 08:51:03;;;;;;;;;;;;;;;26.32;46.48;97596.32;610505;232;64743;-70
2022/12/25 08:53:30;;;;;;;;;;;;;;;26.32;46.98;97595.53;610558;232;66808;-70
2022/12/25 08:56:02;;;;;;;;;;;;;;;26.31;46.86;97589.34;610367;232;47986;-70
2022/12/25 08:58:30;;;;;;;;;;;;;;;26.32;44.79;97580.16;610473;232;64533;-70
2022/12/25 09:00:58;;;;;;;;;;;;;;;26.33;45.51;97587.16;610457;232;64700;-70
2022/12/25 09:03:26;;;;;;;;;;;;;;;26.33;45.55;97600.64;610477;232;65077;-70
2022/12/25 09:05:54;;;;;;;;;;;;;;;26.34;45.62;97599.53;610551;232;66937;-70
2022/12/25 09:08:22;;;;;;;;;;;;;;;26.34;46.61;97586.06;610492;232;67028;-70
2022/12/25 09:10:49;;;;;;;;;;;;;;;26.34;44.78;97586.06;610480;232;65126;-70
2022/12/25 09:13:17;;;;;;;;;;;;;;;26.34;45.70;97586.06;610494;232;66902;-70
2022/12/25 09:15:44;;;;;;;;;;;;;;;26.35;46.28;97594.94;605110;232;66596;-65
2022/12/25 09:18:12;;;;;;;;;;;;;;;26.35;45.65;97605.72;610532;232;65048;-65
2022/12/25 09:20:39;;;;;;;;;;;;;;;26.34;44.84;97594.14;610480;232;66742;-65
2022/12/25 09:23:07;;;;;;;;;;;;;;;26.34;46.15;97588.75;610452;232;67199;-65
2022/12/25 09:25:34;;;;;;;;;;;;;;;26.37;44.97;97594.66;610480;232;64963;-65
2022/12/25 09:28:03;;;;;;;;;;;;;;;26.35;46.21;97593.07;610442;232;64617;-65
2022/12/25 09:30:30;;;;;;;;;;;;;;;26.37;46.49;97597.36;609179;232;66796;-65
2022/12/25 09:32:58;;;;;;;;;;;;;;;26.35;45.77;97601.16;608883;233;64968;-65
2022/12/25 09:35:25;;;;;;;;;;;;;;;26.37;45.91;97592.77;608851;233;66977;-65
2022/12/25 09:37:53;;;;;;;;;;;;;;;26.37;46.21;97600.05;608840;233;64712;-65
2022/12/25 09:40:23;;;;;;;;;;;;;;;26.37;45.69;97597.36;608937;233;46125;-65
2022/12/25 09:42:52;;;;;;;;;;;;;;;26.38;45.72;97601.64;608815;233;66714;-65
2022/12/25 09:45:21;;;;;;;;;;;;;;;26.38;45.33;97593.55;608888;233;66821;-65
2022/12/25 09:47:50;;;;;;;;;;;;;;;26.37;46.54;97602.74;607988;233;62852;-65
2022/12/25 09:50:22;;;;;;;;;;;;;;;26.38;45.38;97598.95;608628;232;64876;-65
2022/12/25 09:52:55;;;;;;;;;;;;;;;26.37;45.65;97603.54;608576;232;64872;-65
2022/12/25 09:55:24;;;;;;;;;;;;;;;26.38;47.20;97598.95;608665;232;65138;-65
2022/12/25 09:57:53;;;;;;;;;;;;;;;26.35;45.96;97601.16;608606;232;67071;-65
2022/12/25 10:00:22;;;;;;;;;;;;;;;26.38;46.19;97601.64;608907;233;70210;-65
2022/12/25 10:02:50;;;;;;;;;;;;;;;26.36;46.04;97599.25;608901;233;65060;-65
2022/12/25 10:05:20;;;;;;;;;;;;;;;26.37;46.04;97597.36;608603;232;66967;-65
2022/12/25 10:08:09;;;;;;;;;;;;;;;26.37;46.46;97594.66;608693;232;45400;-65
2022/12/25 10:10:53;;;;;;;;;;;;;;;26.35;45.62;97594.94;608868;233;64903;-65
2022/12/25 10:13:31;;;;;;;;;;;;;;;26.37;45.39;97608.13;608801;233;66701;-64
2022/12/25 10:16:12;;;;;;;;;;;;;;;26.35;46.36;97606.55;608894;233;64732;-66
2022/12/25 10:18:57;;;;;;;;;;;;;;;26.37;45.77;97605.44;608779;232;65169;-64
2022/12/25 10:21:26;;;;;;;;;;;;;;;26.35;46.13;97603.84;608890;233;66950;-65
2022/12/25 10:23:56;;;;;;;;;;;;;;;26.35;46.36;97600.33;608871;233;64834;-65
2022/12/25 10:26:24;;;;;;;;;;;;;;;26.34;45.96;97596.84;608835;233;65226;-64
2022/12/25 10:29:02;;;;;;;;;;;;;;;26.34;46.63;97594.14;608851;232;66936;-64
2022/12/25 10:31:31;;;;;;;;;;;;;;;26.35;46.52;97605.72;608949;233;66352;-70
2022/12/25 10:33:59;;;;;;;;;;;;;;;26.34;46.01;97596.84;608938;233;64961;-70
2022/12/25 10:36:27;;;;;;;;;;;;;;;26.35;45.58;97595.77;608765;233;66755;-65
2022/12/25 10:38:58;;;;;;;;;;;;;;;26.36;46.88;97596.56;608834;233;66780;-66
2022/12/25 10:41:27;;;;;;;;;;;;;;;26.35;47.81;97595.77;608893;233;65088;-66
2022/12/25 10:43:57;;;;;;;;;;;;;;;26.37;45.48;97591.97;607765;232;64139;-65
2022/12/25 10:46:25;;;;;;;;;;;;;;;26.38;46.66;97588.16;608911;233;66398;-65
2022/12/25 10:48:57;;;;;;;;;;;;;;;26.38;47.12;97577.39;608908;233;63205;-65
2022/12/25 10:51:32;;;;;;;;;;;;;;;26.37;46.17;97571.20;608857;233;64505;-65
2022/12/25 10:54:01;;;;;;;;;;;;;;;26.38;46.45;97572.00;608875;233;66823;-66
2022/12/25 10:56:29;;;;;;;;;;;;;;;26.37;47.38;97571.20;608890;233;62811;-66
2022/12/25 10:59:07;;;;;;;;;;;;;;;26.39;46.21;97573.62;608875;233;64553;-66
2022/12/25 11:01:34;;;;;;;;;;;;;;;26.39;45.73;97579.01;608673;233;67802;-66
2022/12/25 11:04:02;;;;;;;;;;;;;;;26.39;47.20;97576.31;608799;233;64909;-66
2022/12/25 11:06:31;;;;;;;;;;;;;;;26.38;46.24;97572.00;608865;233;67263;-66
2022/12/25 11:09:00;;;;;;;;;;;;;;;26.40;46.57;97580.59;608882;233;67372;-66
2022/12/25 11:11:29;;;;;;;;;;;;;;;26.40;47.36;97586.78;608834;233;63652;-66
2022/12/25 11:13:58;;;;;;;;;;;;;;;26.39;47.01;97584.40;608921;233;64840;-66
2022/12/25 11:16:27;;;;;;;;;;;;;;;26.40;46.04;97583.30;608853;233;66851;-66
2022/12/25 11:18:55;;;;;;;;;;;;;;;26.40;45.86;97580.59;608858;233;62708;-66
2022/12/25 11:21:27;;;;;;;;;;;;;;;26.40;47.01;97577.91;608891;233;64793;-66
2022/12/25 11:24:04;;;;;;;;;;;;;;;26.40;47.35;97591.38;608887;233;66836;-66
2022/12/25 11:26:37;;;;;;;;;;;;;;;26.40;47.57;97583.30;608859;233;65142;-64
2022/12/25 11:29:05;;;;;;;;;;;;;;;26.41;46.81;97579.49;607489;232;67086;-64
2022/12/25 11:31:34;;;;;;;;;;;;;;;26.41;46.02;97574.10;608871;233;66906;-64
2022/12/25 11:34:09;;;;;;;;;;;;;;;26.41;45.34;97587.58;608830;232;64900;-64
2022/12/25 11:36:50;;;;;;;;;;;;;;;26.42;46.18;97578.42;608713;232;64487;-65
2022/12/25 11:39:22;;;;;;;;;;;;;;;26.43;46.96;97583.50;608852;233;65491;-65
2022/12/25 11:41:53;;;;;;;;;;;;;;;26.44;47.71;97578.94;608853;233;62922;-64
2022/12/25 11:44:25;;;;;;;;;;;;;;;26.44;47.75;97576.23;608812;232;67037;-65
2022/12/25 11:46:53;;;;;;;;;;;;;;;26.44;47.64;97573.55;608216;232;66346;-65
2022/12/25 11:49:21;;;;;;;;;;;;;;;26.43;47.54;97575.41;608867;233;65094;-65
2022/12/25 11:51:50;;;;;;;;;;;;;;;26.44;46.29;97590.52;608867;233;66733;-65
2022/12/25 11:54:20;;;;;;;;;;;;;;;26.45;46.43;97581.31;608866;233;67163;-65
2022/12/25 11:56:48;;;;;;;;;;;;;;;26.45;47.38;97584.02;608927;233;64957;-65
2022/12/25 11:59:29;;;;;;;;;;;;;;;26.46;46.47;97590.20;608903;233;66688;-65
2022/12/25 12:01:58;;;;;;;;;;;;;;;26.46;47.41;97582.91;608828;232;64421;-65
2022/12/25 12:04:33;;;;;;;;;;;;;;;26.46;47.00;97588.30;608792;232;64987;-65
2022/12/25 12:07:05;;;;;;;;;;;;;;;26.46;47.07;97596.38;608522;232;64530;-65
2022/12/25 12:09:40;;;;;;;;;;;;;;;26.47;46.53;97603.39;608813;232;66537;-65
2022/12/25 12:12:09;;;;;;;;;;;;;;;26.46;46.30;97588.30;608751;232;63023;-65
2022/12/25 12:14:47;;;;;;;;;;;;;;;26.47;46.21;97591.82;608796;232;63992;-65
2022/12/25 12:17:15;;;;;;;;;;;;;;;26.47;47.25;97591.82;608796;232;64059;-65
2022/12/25 12:19:42;;;;;;;;;;;;;;;26.48;46.30;97588.02;608866;233;63021;-65
2022/12/25 12:22:14;;;;;;;;;;;;;;;26.47;47.56;97592.61;608881;233;64351;-65
2022/12/25 12:24:43;;;;;;;;;;;;;;;26.48;47.41;97588.02;608870;233;69522;-65
2022/12/25 12:27:30;;;;;;;;;;;;;;;26.48;46.59;97578.03;608903;233;63079;-65
2022/12/25 12:29:59;;;;;;;;;;;;;;;26.48;46.90;97588.02;608776;232;66557;-65
2022/12/25 12:32:31;;;;;;;;;;;;;;;26.47;46.88;97587.23;608888;233;66316;-65
2022/12/25 12:34:59;;;;;;;;;;;;;;;26.48;46.46;97582.63;608883;233;64971;-65
2022/12/25 12:37:31;;;;;;;;;;;;;;;26.47;46.81;97583.73;608902;233;66697;-65
2022/12/25 12:39:59;;;;;;;;;;;;;;;26.47;46.53;97584.53;608910;233;66631;-65
2022/12/25 12:42:28;;;;;;;;;;;;;;;26.49;46.05;97589.61;608923;233;65047;-65
2022/12/25 12:44:56;;;;;;;;;;;;;;;26.48;47.93;97593.41;608870;233;66669;-65
2022/12/25 12:47:40;;;;;;;;;;;;;;;26.47;47.37;97581.04;608875;233;66517;-66
2022/12/25 12:50:09;;;;;;;;;;;;;;;26.47;46.72;97584.53;608845;233;62718;-65
2022/12/25 12:52:39;;;;;;;;;;;;;;;26.47;46.00;97579.14;608256;232;66506;-65
2022/12/25 12:55:15;;;;;;;;;;;;;;;26.48;45.97;97593.41;608925;233;64420;-65
2022/12/25 12:57:43;;;;;;;;;;;;;;;26.48;46.84;97596.91;608929;233;64890;-65
2022/12/25 13:00:12;;;;;;;;;;;;;;;26.47;47.68;97592.61;608892;233;64509;-65
2022/12/25 13:02:53;;;;;;;;;;;;;;;26.46;47.96;97600.98;608198;232;66219;-65
2022/12/25 13:05:40;;;;;;;;;;;;;;;26.46;47.75;97595.59;608576;232;65061;-65
2022/12/25 13:08:22;;;;;;;;;;;;;;;26.46;47.17;97607.16;608876;233;64335;-65
2022/12/25 13:10:51;;;;;;;;;;;;;;;26.46;46.09;97601.77;608802;233;64589;-65
2022/12/25 13:13:20;;;;;;;;;;;;;;;26.48;46.21;97612.28;608918;233;65311;-65
2022/12/25 13:15:49;;;;;;;;;;;;;;;26.47;46.84;97605.30;608873;233;66680;-65
2022/12/25 13:18:17;;;;;;;;;;;;;;;26.47;46.92;97607.99;608883;233;66470;-66
2022/12/25 13:20:46;;;;;;;;;;;;;;;26.47;46.27;97610.69;608879;233;65010;-65
2022/12/25 13:23:15;;;;;;;;;;;;;;;26.45;47.35;97600.19;608779;232;64277;-65
2022/12/25 13:25:42;;;;;;;;;;;;;;;26.47;47.65;97613.38;608842;233;66539;-65
2022/12/25 13:28:11;;;;;;;;;;;;;;;26.46;47.30;97617.16;608963;233;63019;-65
2022/12/25 13:30:39;;;;;;;;;;;;;;;26.46;47.65;97619.84;610240;232;66418;-70
2022/12/25 13:33:07;;;;;;;;;;;;;;;26.45;48.19;97621.74;610548;232;66531;-70
2022/12/25 13:35:36;;;;;;;;;;;;;;;26.45;48.70;97620.95;610381;232;63050;-70
2022/12/25 13:38:05;;;;;;;;;;;;;;;26.44;46.47;97619.36;610278;232;64717;-70
2022/12/25 13:40:33;;;;;;;;;;;;;;;26.43;46.84;97623.13;610341;232;64471;-70
2022/12/25 13:43:01;;;;;;;;;;;;;;;26.44;46.51;97624.75;610551;232;62935;-70
2022/12/25 13:45:32;;;;;;;;;;;;;;;26.44;47.26;97624.75;610524;232;64594;-70
2022/12/25 13:48:01;;;;;;;;;;;;;;;26.43;47.58;97632.01;610547;232;64095;-70
2022/12/25 13:50:29;;;;;;;;;;;;;;;26.43;47.65;97629.31;610190;232;62879;-70
2022/12/25 13:52:58;;;;;;;;;;;;;;;26.44;47.74;97635.53;610587;232;66801;-70
2022/12/25 13:55:26;;;;;;;;;;;;;;;26.43;47.80;97637.40;610534;232;66542;-70
2022/12/25 13:58:05;;;;;;;;;;;;;;;26.42;46.94;97640.41;610541;232;62818;-71
2022/12/25 14:00:34;;;;;;;;;;;;;;;26.42;46.94;97643.09;610526;232;66752;-69
2022/12/25 14:03:03;;;;;;;;;;;;;;;26.41;48.09;97647.69;610491;232;66587;-69
2022/12/25 14:05:31;;;;;;;;;;;;;;;26.40;47.69;97646.07;610526;232;65032;-69
2022/12/25 14:08:00;;;;;;;;;;;;;;;26.39;48.06;97643.69;610562;232;66769;-70
2022/12/25 14:10:29;;;;;;;;;;;;;;;26.39;47.82;97643.69;610510;232;66466;-70
2022/12/25 14:12:58;;;;;;;;;;;;;;;26.40;47.56;97646.07;610544;232;65219;-70
2022/12/25 14:15:27;;;;;;;;;;;;;;;26.40;47.28;97647.97;610560;232;64476;-70
2022/12/25 14:17:55;;;;;;;;;;;;;;;26.39;47.18;97649.07;610523;232;66388;-69
2022/12/25 14:20:24;;;;;;;;;;;;;;;26.37;46.88;97646.66;610581;232;65068;-70
2022/12/25 14:22:53;;;;;;;;;;;;;;;26.35;47.38;97644.27;610557;232;64547;-70
2022/12/25 14:25:22;;;;;;;;;;;;;;;26.35;47.61;97646.14;610501;232;66828;-70
2022/12/25 14:27:50;;;;;;;;;;;;;;;26.35;47.78;97651.52;610519;232;65010;-65
2022/12/25 14:30:18;;;;;;;;;;;;;;;26.35;48.45;97654.22;609259;232;66703;-65
2022/12/25 14:32:49;;;;;;;;;;;;;;;26.35;48.96;97654.22;608916;233;66492;-65
2022/12/25 14:35:17;;;;;;;;;;;;;;;26.35;47.53;97663.13;608942;233;65043;-64
2022/12/25 14:37:45;;;;;;;;;;;;;;;26.33;46.86;97668.00;608895;233;66729;-64
2022/12/25 14:40:31;;;;;;;;;;;;;;;26.32;48.07;97663.69;608921;233;66375;-64
2022/12/25 14:43:00;;;;;;;;;;;;;;;26.32;48.21;97662.89;608920;233;65162;-65
2022/12/25 14:45:29;;;;;;;;;;;;;;;26.31;47.30;97656.70;608932;233;66204;-65